createdAt,value
2018-08-09T00:00:48.816Z,1.00
2018-08-09T00:05:51.164Z,1.00
2018-08-09T00:13:30.043Z,1.00
2018-08-09T00:18:31.462Z,1.00
2018-08-09T00:23:32.885Z,1.00
2018-08-09T00:28:33.206Z,1.00
2018-08-09T00:31:03.023Z,1.00
2018-08-09T00:36:03.399Z,1.00
2018-08-09T00:38:35.222Z,1.00
2018-08-09T00:41:10.482Z,1.00
2018-08-09T00:43:42.309Z,1.00
2018-08-09T00:46:15.842Z,1.00
2018-08-09T00:58:50.758Z,1.00
2018-08-09T01:01:22.562Z,1.00
2018-08-09T01:03:52.402Z,1.00
2018-08-09T01:06:22.363Z,1.00
2018-08-09T01:08:59.458Z,1.00
2018-08-09T01:11:29.310Z,1.00
2018-08-09T01:13:59.098Z,1.00
2018-08-09T01:16:29.015Z,1.00
2018-08-09T01:18:58.850Z,1.00
2018-08-09T01:21:30.748Z,1.00
2018-08-09T01:26:43.134Z,1.00
2018-08-09T01:29:14.974Z,1.00
2018-08-09T01:34:33.046Z,1.00
2018-08-09T01:37:07.701Z,1.00
2018-08-09T01:39:39.522Z,1.00
2018-08-09T01:42:27.412Z,1.00
2018-08-09T01:49:58.194Z,1.00
2018-08-09T01:52:31.850Z,1.00
2018-08-09T01:55:05.275Z,1.00
2018-08-09T02:00:06.454Z,1.00
2018-08-09T02:02:37.310Z,1.00
2018-08-09T02:05:18.921Z,1.00
2018-08-09T02:07:49.134Z,1.00
2018-08-09T02:10:19.942Z,1.00
2018-08-09T02:12:51.830Z,1.00
2018-08-09T02:15:33.610Z,1.00
2018-08-09T02:23:13.682Z,1.00
2018-08-09T02:28:14.138Z,1.00
2018-08-09T02:33:14.518Z,1.00
2018-08-09T02:35:53.826Z,1.00
2018-08-09T02:38:23.727Z,1.00
2018-08-09T02:40:54.552Z,1.00
2018-08-09T02:46:04.542Z,1.00
2018-08-09T02:48:35.379Z,1.00
2018-08-09T02:51:05.254Z,1.00
2018-08-09T03:01:21.437Z,1.00
2018-08-09T03:03:52.280Z,1.00
2018-08-09T03:06:38.698Z,1.00
2018-08-09T03:09:12.222Z,1.00
2018-08-09T03:11:43.054Z,1.00
2018-08-09T03:14:12.922Z,1.00
2018-08-09T03:19:13.271Z,1.00
2018-08-09T03:26:55.490Z,1.00
2018-08-09T03:29:25.433Z,1.00
2018-08-09T03:34:26.777Z,1.00
2018-08-09T03:36:57.578Z,1.00
2018-08-09T03:39:29.473Z,1.00
2018-08-09T03:42:00.290Z,1.00
2018-08-09T03:44:40.490Z,1.00
2018-08-09T03:47:26.577Z,1.00
2018-08-09T03:49:58.477Z,1.00
2018-08-09T03:57:37.790Z,1.00
2018-08-09T04:00:09.310Z,1.00
2018-08-09T04:02:40.338Z,1.00
2018-08-09T04:05:10.934Z,1.00
2018-08-09T04:07:41.814Z,1.00
2018-08-09T04:10:12.722Z,1.00
2018-08-09T04:12:47.400Z,1.00
2018-08-09T04:15:19.285Z,1.00
2018-08-09T04:17:50.195Z,1.00
2018-08-09T04:20:20.123Z,1.00
2018-08-09T04:22:54.854Z,1.00
2018-08-09T04:25:30.805Z,1.00
2018-08-09T04:28:00.678Z,1.00
2018-08-09T04:30:32.561Z,1.00
2018-08-09T04:33:07.226Z,1.00
2018-08-09T04:35:41.449Z,1.00
2018-08-09T04:38:11.294Z,1.00
2018-08-09T04:40:41.181Z,1.00
2018-08-09T04:43:11.022Z,1.00
2018-08-09T04:45:40.878Z,1.00
2018-08-09T04:48:10.741Z,1.00
2018-08-09T04:50:41.641Z,1.00
2018-08-09T04:53:12.565Z,1.00
2018-08-09T04:58:13.059Z,1.00
2018-08-09T05:03:17.495Z,99.90
2018-08-09T05:05:50.562Z,99.90
2018-08-09T05:10:54.482Z,99.90
2018-08-09T05:13:25.370Z,73.40
2018-08-09T05:23:26.864Z,1.00
2018-08-09T05:28:31.514Z,1.00
2018-08-09T05:31:02.350Z,1.00
2018-08-09T05:33:34.238Z,1.00
2018-08-09T05:36:05.076Z,1.00
2018-08-09T05:43:34.985Z,1.00
2018-08-09T05:48:36.401Z,1.00
2018-08-09T05:51:06.459Z,99.90
2018-08-09T05:53:39.646Z,99.90
2018-08-09T06:01:15.284Z,1.00
2018-08-09T06:03:46.142Z,1.00
2018-08-09T06:06:16.006Z,99.90
2018-08-09T06:08:46.872Z,99.90
2018-08-09T06:11:17.391Z,53.40
2018-08-09T06:13:50.477Z,1.00
2018-08-09T06:16:21.345Z,1.00
2018-08-09T06:18:51.189Z,99.90
2018-08-09T06:26:30.348Z,1.00
2018-08-09T06:29:01.258Z,1.00
2018-08-09T06:31:33.085Z,99.90
2018-08-09T06:34:03.983Z,99.90
2018-08-09T06:36:35.881Z,99.90
2018-08-09T06:39:08.241Z,99.90
2018-08-09T06:41:38.921Z,99.90
2018-08-09T06:44:10.868Z,1.00
2018-08-09T06:49:12.596Z,99.90
2018-08-09T06:54:12.933Z,99.90
2018-08-09T06:59:18.077Z,1.00
2018-08-09T07:01:52.192Z,1.00
2018-08-09T07:04:22.977Z,1.00
2018-08-09T07:06:52.894Z,1.00
2018-08-09T07:09:22.633Z,99.90
2018-08-09T07:11:52.452Z,99.90
2018-08-09T07:14:22.252Z,99.90
2018-08-09T07:16:52.121Z,33.10
2018-08-09T07:19:39.513Z,1.00
2018-08-09T07:22:15.961Z,1.00
2018-08-09T07:24:45.768Z,1.00
2018-08-09T07:27:16.559Z,1.00
2018-08-09T07:29:48.381Z,1.00
2018-08-09T07:34:59.412Z,1.00
2018-08-09T07:37:30.209Z,1.00
2018-08-09T07:40:01.008Z,1.00
2018-08-09T07:42:30.821Z,1.00
2018-08-09T07:45:01.585Z,1.00
2018-08-09T07:50:06.526Z,1.00
2018-08-09T07:52:40.097Z,1.00
2018-08-09T07:55:10.829Z,1.00
2018-08-09T08:05:18.374Z,1.00
2018-08-09T08:07:48.257Z,1.00
2018-08-09T08:10:18.009Z,1.00
2018-08-09T08:12:48.777Z,99.90
2018-08-09T08:15:18.597Z,99.90
2018-08-09T08:20:24.665Z,99.90
2018-08-09T08:25:29.353Z,99.90
2018-08-09T08:27:59.121Z,99.90
2018-08-09T08:30:30.927Z,99.90
2018-08-09T08:33:00.725Z,99.90
2018-08-09T08:35:31.506Z,99.90
2018-08-09T08:38:01.342Z,99.90
2018-08-09T08:40:32.124Z,99.90
2018-08-09T08:43:10.266Z,99.90
2018-08-09T08:45:40.074Z,99.90
2018-08-09T08:48:12.007Z,99.90
2018-08-09T08:58:17.525Z,99.90
2018-08-09T09:00:47.388Z,99.90
2018-08-09T09:03:18.122Z,95.30
2018-08-09T09:05:49.015Z,96.90
2018-08-09T09:08:18.845Z,90.70
2018-08-09T09:10:53.489Z,72.30
2018-08-09T09:13:24.501Z,55.30
2018-08-09T09:15:55.351Z,53.30
2018-08-09T09:18:26.086Z,41.00
2018-08-09T09:23:28.612Z,12.00
2018-08-09T09:28:27.901Z,1.00
2018-08-09T09:30:57.821Z,1.00
2018-08-09T09:33:31.193Z,1.00
2018-08-09T09:36:02.954Z,1.00
2018-08-09T09:38:32.945Z,1.00
2018-08-09T09:41:04.629Z,1.00
2018-08-09T09:43:35.709Z,1.00
2018-08-09T09:46:19.757Z,1.00
2018-08-09T09:53:55.577Z,1.00
2018-08-09T10:01:34.326Z,1.00
2018-08-09T10:04:07.409Z,1.00
2018-08-09T10:09:23.157Z,1.00
2018-08-09T10:11:52.916Z,1.00
2018-08-09T10:14:39.698Z,1.00
2018-08-09T10:17:16.233Z,1.00
2018-08-09T10:19:52.230Z,1.00
2018-08-09T10:22:21.985Z,1.00
2018-08-09T10:24:55.483Z,1.00
2018-08-09T10:27:30.869Z,1.00
2018-08-09T10:30:32.061Z,1.00
2018-08-09T10:33:05.779Z,1.00
2018-08-09T10:35:39.968Z,1.00
2018-08-09T10:43:09.973Z,1.00
2018-08-09T10:48:15.437Z,1.00
2018-08-09T10:50:45.229Z,1.00
2018-08-09T10:53:31.141Z,1.00
2018-08-09T10:56:08.821Z,1.00
2018-08-09T10:58:39.577Z,1.00
2018-08-09T11:06:21.215Z,1.00
2018-08-09T11:08:50.971Z,1.00
2018-08-09T11:11:20.770Z,1.00
2018-08-09T11:13:50.569Z,1.00
2018-08-09T11:16:22.425Z,1.00
2018-08-09T11:21:27.925Z,1.00
2018-08-09T11:23:58.717Z,1.00
2018-08-09T11:26:38.337Z,1.00
2018-08-09T11:29:08.237Z,1.00
2018-08-09T11:31:39.057Z,1.00
2018-08-09T11:39:11.569Z,1.00
2018-08-09T11:44:12.193Z,1.00
2018-08-09T11:46:42.361Z,1.00
2018-08-09T11:49:12.175Z,1.00
2018-08-09T11:51:44.001Z,1.00
2018-08-09T11:54:16.885Z,1.00
2018-08-09T11:56:54.518Z,1.00
2018-08-09T11:59:24.409Z,1.00
2018-08-09T12:04:24.745Z,1.00
2018-08-09T12:06:55.542Z,1.00
2018-08-09T12:09:25.378Z,1.00
2018-08-09T12:11:55.173Z,1.00
2018-08-09T12:14:24.989Z,1.00
2018-08-09T12:16:55.840Z,1.00
2018-08-09T12:19:32.607Z,1.00
2018-08-09T12:24:32.966Z,1.00
2018-08-09T12:27:02.991Z,1.00
2018-08-09T12:29:33.825Z,1.00
2018-08-09T12:32:11.615Z,1.00
2018-08-09T12:37:16.549Z,1.00
2018-08-09T12:39:48.325Z,1.00
2018-08-09T12:42:18.245Z,1.00
2018-08-09T12:45:50.985Z,1.00
2018-08-09T12:48:20.844Z,1.00
2018-08-09T12:50:50.693Z,1.00
2018-08-09T12:53:22.540Z,1.00
2018-08-09T12:55:53.465Z,1.00
2018-08-09T12:58:23.384Z,1.00
2018-08-09T13:00:57.300Z,1.00
2018-08-09T13:06:02.732Z,1.00
2018-08-09T13:08:35.913Z,1.00
2018-08-09T13:11:05.807Z,1.00
2018-08-09T13:13:36.679Z,1.00
2018-08-09T13:16:06.608Z,1.00
2018-08-09T13:18:36.392Z,1.00
2018-08-09T13:21:06.301Z,1.00
2018-08-09T13:23:38.161Z,1.00
2018-08-09T13:26:08.961Z,1.00
2018-08-09T13:31:08.333Z,1.00
2018-08-09T13:36:08.871Z,1.00
2018-08-09T13:41:08.209Z,1.00
2018-08-09T13:51:08.659Z,1.00
2018-08-09T13:56:09.028Z,1.00
2018-08-09T14:01:08.333Z,1.00
2018-08-09T14:06:09.561Z,1.00
2018-08-09T14:11:10.976Z,1.00
2018-08-09T14:18:50.369Z,1.00
2018-08-09T14:21:21.136Z,1.00
2018-08-09T14:23:50.929Z,1.00
2018-08-09T14:26:20.725Z,1.00
2018-08-09T14:28:50.520Z,1.00
2018-08-09T14:31:20.320Z,1.00
2018-08-09T14:36:24.428Z,1.00
2018-08-09T14:38:56.249Z,1.00
2018-08-09T14:41:26.039Z,1.00
2018-08-09T14:43:55.829Z,1.00
2018-08-09T14:46:26.601Z,1.00
2018-08-09T14:48:59.528Z,1.00
2018-08-09T14:51:29.389Z,1.00
2018-08-09T14:59:11.141Z,1.00
2018-08-09T15:01:46.420Z,1.00
2018-08-09T15:04:17.207Z,1.00
2018-08-09T15:06:47.853Z,1.00
2018-08-09T15:09:21.573Z,1.00
2018-08-09T15:11:51.359Z,1.00
2018-08-09T15:16:56.558Z,1.00
2018-08-09T15:19:26.301Z,1.00
2018-08-09T15:24:50.265Z,1.00
2018-08-09T15:27:21.041Z,1.00
2018-08-09T15:29:50.813Z,1.00
2018-08-09T15:32:26.101Z,1.00
2018-08-09T15:35:13.385Z,1.00
2018-08-09T15:37:54.828Z,1.00
2018-08-09T15:40:24.549Z,1.00
2018-08-09T15:42:54.321Z,1.00
2018-08-09T15:45:37.449Z,1.00
2018-08-09T15:48:13.557Z,1.00
2018-08-09T15:50:43.338Z,1.00
2018-08-09T15:53:16.469Z,1.00
2018-08-09T15:55:55.829Z,1.00
2018-08-09T15:58:25.684Z,1.00
2018-08-09T16:00:56.457Z,1.00
2018-08-09T16:03:26.345Z,1.00
2018-08-09T16:09:11.877Z,1.00
2018-08-09T16:11:46.199Z,1.00
2018-08-09T16:14:16.993Z,1.00
2018-08-09T16:16:46.905Z,1.00
2018-08-09T16:19:16.649Z,1.00
2018-08-09T16:21:46.497Z,1.00
2018-08-09T16:24:19.434Z,1.00
2018-08-09T16:26:49.333Z,1.00
2018-08-09T16:29:19.097Z,1.00
2018-08-09T16:31:48.935Z,1.00
2018-08-09T16:34:18.719Z,1.00
2018-08-09T16:36:48.497Z,1.00
2018-08-09T16:39:19.245Z,1.00
2018-08-09T16:41:49.029Z,1.00
2018-08-09T16:46:50.360Z,1.00
2018-08-09T16:49:20.136Z,1.00
2018-08-09T16:52:02.196Z,1.00
2018-08-09T16:54:38.181Z,1.00
2018-08-09T16:57:19.804Z,1.00
2018-08-09T17:00:12.713Z,1.00
2018-08-09T17:02:42.512Z,1.00
2018-08-09T17:05:16.845Z,1.00
2018-08-09T17:07:51.400Z,1.00
2018-08-09T17:10:22.956Z,1.00
2018-08-09T17:13:12.832Z,1.00
2018-08-09T17:18:16.867Z,1.00
2018-08-09T17:20:46.616Z,1.00
2018-08-09T17:30:59.917Z,1.00
2018-08-09T17:33:30.696Z,1.00
2018-08-09T17:36:10.021Z,1.00
2018-08-09T17:44:10.244Z,1.00
2018-08-09T17:49:12.508Z,1.00
2018-08-09T17:51:42.384Z,1.00
2018-08-09T17:54:17.712Z,1.00
2018-08-09T17:56:51.212Z,1.00
2018-08-09T18:01:54.000Z,1.00
2018-08-09T18:06:59.032Z,1.00
2018-08-09T18:17:07.457Z,1.00
2018-08-09T18:22:09.380Z,36.70
2018-08-09T18:29:52.728Z,99.90
2018-08-09T18:32:22.833Z,99.90
2018-08-09T18:34:52.624Z,1.00
2018-08-09T18:37:24.424Z,1.00
2018-08-09T18:39:54.300Z,1.00
2018-08-09T18:44:58.608Z,1.00
2018-08-09T18:52:29.372Z,1.00
2018-08-09T18:57:36.952Z,1.00
2018-08-09T19:00:15.380Z,1.00
2018-08-09T19:02:45.904Z,1.00
2018-08-09T19:05:16.952Z,1.00
2018-08-09T19:07:47.880Z,1.00
2018-08-09T19:10:21.664Z,4.40
2018-08-09T19:17:53.024Z,99.90
2018-08-09T19:23:13.939Z,1.00
2018-08-09T19:25:49.605Z,1.00
2018-08-09T19:28:20.180Z,33.10
2018-08-09T19:30:52.027Z,99.90
2018-08-09T19:33:23.893Z,99.90
2018-08-09T19:35:55.083Z,1.00
2018-08-09T19:43:38.067Z,1.00
2018-08-09T19:46:08.840Z,1.00
2018-08-09T19:53:57.614Z,1.00
2018-08-09T19:58:58.188Z,1.00
2018-08-09T20:01:31.743Z,1.00
2018-08-09T20:04:02.539Z,1.00
2018-08-09T20:06:36.030Z,1.00
2018-08-09T20:09:10.115Z,1.00
2018-08-09T20:11:42.260Z,1.00
2018-08-09T20:14:19.996Z,99.90
2018-08-09T20:19:28.912Z,99.90
2018-08-09T20:22:02.399Z,1.00
2018-08-09T20:24:34.272Z,1.00
2018-08-09T20:27:09.707Z,1.00
2018-08-09T20:32:14.286Z,99.90
2018-08-09T20:34:53.215Z,99.90
2018-08-09T20:37:25.125Z,99.90
2018-08-09T20:42:24.716Z,1.00
2018-08-09T20:44:55.584Z,1.00
2018-08-09T20:47:25.477Z,1.00
2018-08-09T20:49:56.336Z,1.00
2018-08-09T20:54:57.671Z,1.00
2018-08-09T20:57:27.640Z,1.00
2018-08-09T21:02:32.108Z,1.00
2018-08-09T21:07:37.516Z,57.50
2018-08-09T21:10:08.444Z,73.70
2018-08-09T21:15:13.152Z,99.90
2018-08-09T21:17:45.304Z,99.90
2018-08-09T21:20:15.680Z,99.90
2018-08-09T21:25:20.254Z,99.90
2018-08-09T21:30:26.600Z,99.90
2018-08-09T21:32:56.472Z,99.90
2018-08-09T21:35:28.984Z,99.90
2018-08-09T21:45:31.905Z,1.00
2018-08-09T21:48:02.756Z,1.00
2018-08-09T21:50:37.116Z,1.00
2018-08-09T21:55:57.104Z,1.00
2018-08-09T21:58:27.964Z,1.00
2018-08-09T22:01:02.763Z,1.00
2018-08-09T22:03:36.872Z,1.00
2018-08-09T22:14:11.805Z,99.90
2018-08-09T22:16:47.840Z,99.90
2018-08-09T22:19:28.880Z,99.90
2018-08-09T22:27:11.608Z,1.00
2018-08-09T22:29:56.600Z,1.00
2018-08-09T22:40:20.515Z,1.00
2018-08-09T22:48:12.644Z,99.90
2018-08-09T22:58:44.594Z,1.00
2018-08-09T23:01:14.491Z,1.00
2018-08-09T23:06:19.711Z,99.90
2018-08-09T23:08:49.587Z,99.90
2018-08-09T23:24:11.060Z,1.00
2018-08-09T23:26:41.298Z,1.00
2018-08-09T23:29:12.095Z,1.00
2018-08-09T23:31:41.908Z,1.00
2018-08-09T23:34:17.567Z,1.00
2018-08-09T23:36:51.788Z,1.00
2018-08-09T23:39:22.632Z,1.00
2018-08-09T23:41:52.415Z,1.00
2018-08-09T23:44:34.559Z,1.00
2018-08-09T23:47:11.635Z,1.00
2018-08-09T23:57:46.999Z,99.90
